Time;durP1;ratioP1;P1;durP2;ratioP2;P2;SDS_P1;SDS_P2;PMS_P1;PMS_P2;Temp;Humidity;BMP_temperature;BMP_pressure;BME280_temperature;BME280_humidity;BME280_pressure;Samples;Min_cycle;Max_cycle;Signal;HPM_P1;HPM_P2
2022/08/12 00:44:20;;;;;;;4.95;2.20;;;;;;;;;;5033861;28;20040;-65
2022/08/12 00:46:48;;;;;;;4.28;2.20;;;;;;;;;;5029529;28;20033;-65
2022/08/12 00:49:13;;;;;;;3.63;1.75;;;;;;;;;;5028698;28;20040;-65
2022/08/12 00:54:23;;;;;;;5.53;2.20;;;;;;;;;;5027336;28;20043;-65
2022/08/12 00:56:49;;;;;;;6.43;2.35;;;;;;;;;;5030187;28;20026;-65
2022/08/12 00:59:15;;;;;;;4.47;2.25;;;;;;;;;;5029801;28;20025;-65
2022/08/12 01:01:43;;;;;;;5.78;2.28;;;;;;;;;;5029293;28;20090;-65
2022/08/12 01:12:24;;;;;;;5.45;2.13;;;;;;;;;;5026660;28;20125;-65
2022/08/12 01:14:52;;;;;;;4.30;2.10;;;;;;;;;;5030601;28;20100;-65
2022/08/12 01:17:18;;;;;;;5.07;2.40;;;;;;;;;;5031676;28;20045;-65
2022/08/12 01:19:46;;;;;;;7.57;2.30;;;;;;;;;;5024455;28;20080;-65
2022/08/12 01:22:11;;;;;;;9.38;2.08;;;;;;;;;;5022615;28;20686;-65
2022/08/12 01:24:47;;;;;;;7.18;2.10;;;;;;;;;;5028891;28;20032;-65
2022/08/12 01:27:14;;;;;;;6.10;2.58;;;;;;;;;;5029379;28;20065;-65
2022/08/12 01:29:43;;;;;;;5.93;2.10;;;;;;;;;;5024484;28;20521;-65
2022/08/12 01:32:10;;;;;;;8.68;2.13;;;;;;;;;;5025427;28;20035;-65
2022/08/12 01:34:37;;;;;;;7.93;3.10;;;;;;;;;;5025434;28;20121;-65
2022/08/12 01:37:03;;;;;;;5.88;2.28;;;;;;;;;;5027256;28;20036;-65
2022/08/12 01:39:30;;;;;;;5.28;1.90;;;;;;;;;;5026310;28;20026;-65
2022/08/12 01:41:58;;;;;;;4.72;2.20;;;;;;;;;;5033505;28;20029;-65
2022/08/12 01:44:25;;;;;;;6.72;2.20;;;;;;;;;;5031653;28;20687;-65
2022/08/12 01:47:03;;;;;;;4.80;2.25;;;;;;;;;;5024140;28;20120;-65
2022/08/12 01:49:47;;;;;;;5.13;2.47;;;;;;;;;;5021513;28;20055;-65
2022/08/12 01:52:22;;;;;;;5.20;2.10;;;;;;;;;;5029554;28;20095;-65
2022/08/12 01:54:48;;;;;;;7.75;2.35;;;;;;;;;;5026052;28;20018;-65
2022/08/12 01:57:23;;;;;;;5.30;2.30;;;;;;;;;;5028357;28;20036;-65
2022/08/12 01:59:57;;;;;;;8.98;2.70;;;;;;;;;;5022080;28;20025;-65
2022/08/12 02:02:25;;;;;;;4.30;2.10;;;;;;;;;;5028543;28;20037;-65
2022/08/12 02:13:22;;;;;;;6.82;2.03;;;;;;;;;;5026022;28;20036;-65
2022/08/12 02:16:07;;;;;;;7.65;2.40;;;;;;;;;;5027492;28;20021;-65
2022/08/12 02:18:42;;;;;;;4.80;2.53;;;;;;;;;;5020955;28;20071;-65
2022/08/12 02:21:18;;;;;;;6.53;2.13;;;;;;;;;;5023476;28;20466;-65
2022/08/12 02:23:44;;;;;;;7.47;2.33;;;;;;;;;;5018340;28;20044;-65
2022/08/12 02:26:11;;;;;;;6.80;2.45;;;;;;;;;;5022369;28;20029;-65
2022/08/12 02:28:37;;;;;;;4.38;2.50;;;;;;;;;;5033207;28;20107;-65
2022/08/12 02:31:04;;;;;;;6.53;2.55;;;;;;;;;;5029805;28;20022;-65
2022/08/12 02:33:30;;;;;;;8.07;2.30;;;;;;;;;;5021144;28;20034;-65
2022/08/12 02:35:56;;;;;;;6.95;2.38;;;;;;;;;;5029704;28;20013;-65
2022/08/12 02:38:22;;;;;;;9.38;2.60;;;;;;;;;;5022264;28;20036;-65
2022/08/12 02:40:50;;;;;;;5.10;2.47;;;;;;;;;;5026490;28;20033;-65
2022/08/12 02:43:34;;;;;;;5.28;2.22;;;;;;;;;;5028468;28;20032;-65
2022/08/12 02:46:03;;;;;;;4.07;2.45;;;;;;;;;;5033586;28;20390;-65
2022/08/12 02:48:47;;;;;;;5.43;2.42;;;;;;;;;;5028718;28;20056;-65
2022/08/12 02:51:18;;;;;;;9.75;2.53;;;;;;;;;;5025016;28;20032;-65
2022/08/12 02:53:43;;;;;;;5.82;2.30;;;;;;;;;;5031924;28;20079;-65
2022/08/12 02:56:09;;;;;;;6.35;2.30;;;;;;;;;;5026133;28;20037;-65
2022/08/12 02:58:35;;;;;;;7.60;2.30;;;;;;;;;;5025098;28;20041;-65
2022/08/12 03:01:01;;;;;;;9.35;2.70;;;;;;;;;;5025931;28;20440;-65
2022/08/12 03:03:31;;;;;;;7.68;2.50;;;;;;;;;;5027877;28;20372;-65
2022/08/12 03:06:00;;;;;;;5.45;2.65;;;;;;;;;;5026831;28;20034;-66
2022/08/12 03:08:29;;;;;;;5.78;2.40;;;;;;;;;;5029106;28;20032;-65
2022/08/12 03:10:58;;;;;;;6.13;2.50;;;;;;;;;;5030039;28;20067;-65
2022/08/12 03:13:25;;;;;;;6.60;2.63;;;;;;;;;;5028273;28;20205;-65
2022/08/12 03:15:52;;;;;;;6.43;2.30;;;;;;;;;;5027448;28;20026;-65
2022/08/12 03:18:23;;;;;;;6.28;2.53;;;;;;;;;;5030469;28;20025;-65
2022/08/12 03:20:48;;;;;;;8.10;2.58;;;;;;;;;;5025205;28;20028;-65
2022/08/12 03:23:14;;;;;;;5.05;2.50;;;;;;;;;;5028620;28;20013;-65
2022/08/12 03:25:41;;;;;;;7.32;3.05;;;;;;;;;;5024788;28;20537;-65
2022/08/12 03:28:10;;;;;;;6.05;2.67;;;;;;;;;;5021837;28;20166;-65
2022/08/12 03:30:37;;;;;;;5.65;2.58;;;;;;;;;;5023212;28;20025;-65
2022/08/12 03:33:03;;;;;;;5.57;3.08;;;;;;;;;;5026357;28;20017;-65
2022/08/12 03:35:32;;;;;;;6.15;2.83;;;;;;;;;;5018440;28;20025;-65
2022/08/12 03:37:59;;;;;;;6.93;2.95;;;;;;;;;;5019471;28;20014;-65
2022/08/12 04:02:23;;;;;;;5.40;3.15;;;;;;;;;;5025732;28;20090;-65
2022/08/12 04:04:49;;;;;;;6.15;3.30;;;;;;;;;;5029947;28;20026;-65
2022/08/12 04:07:15;;;;;;;6.53;3.40;;;;;;;;;;5024055;28;20045;-65
2022/08/12 04:09:41;;;;;;;6.60;3.10;;;;;;;;;;5026527;28;20051;-66
2022/08/12 04:14:51;;;;;;;7.63;3.20;;;;;;;;;;5025854;28;20085;-65
2022/08/12 04:17:17;;;;;;;7.57;3.10;;;;;;;;;;5016978;28;20123;-65
2022/08/12 04:19:45;;;;;;;9.00;3.10;;;;;;;;;;5022878;28;20117;-65
2022/08/12 04:22:11;;;;;;;9.32;3.45;;;;;;;;;;5024439;28;20032;-65
2022/08/12 04:24:37;;;;;;;8.98;3.10;;;;;;;;;;5021563;28;20032;-65
2022/08/12 04:27:04;;;;;;;8.13;3.30;;;;;;;;;;5020306;28;20033;-66
2022/08/12 04:29:29;;;;;;;8.07;3.10;;;;;;;;;;5030748;28;20398;-65
2022/08/12 04:31:55;;;;;;;8.43;3.10;;;;;;;;;;5022684;28;20026;-65
2022/08/12 04:34:21;;;;;;;6.65;2.95;;;;;;;;;;5021304;28;20026;-65
2022/08/12 04:36:46;;;;;;;8.18;3.30;;;;;;;;;;5019590;28;21216;-65
2022/08/12 04:39:12;;;;;;;7.00;3.55;;;;;;;;;;5019735;28;20036;-65
2022/08/12 04:41:38;;;;;;;5.68;3.30;;;;;;;;;;5030923;28;20028;-65
2022/08/12 04:44:04;;;;;;;7.05;3.25;;;;;;;;;;5034036;28;20504;-65
2022/08/12 04:46:29;;;;;;;8.07;3.17;;;;;;;;;;5029982;28;20114;-66
2022/08/12 04:48:54;;;;;;;8.45;2.97;;;;;;;;;;5022086;28;20024;-65
2022/08/12 04:51:20;;;;;;;7.18;2.72;;;;;;;;;;5026046;28;20517;-65
2022/08/12 04:53:46;;;;;;;10.00;2.55;;;;;;;;;;5026450;28;20500;-66
2022/08/12 04:56:12;;;;;;;11.10;2.78;;;;;;;;;;5022213;28;20076;-66
2022/08/12 04:58:37;;;;;;;6.13;2.75;;;;;;;;;;5020050;28;20037;-65
2022/08/12 05:01:03;;;;;;;5.05;2.58;;;;;;;;;;5025813;28;20021;-66
2022/08/12 05:03:29;;;;;;;5.50;2.95;;;;;;;;;;5031350;28;20053;-65
2022/08/12 05:05:55;;;;;;;7.75;2.70;;;;;;;;;;5033713;28;20373;-66
2022/08/12 05:08:21;;;;;;;8.02;2.67;;;;;;;;;;5033960;28;20087;-66
2022/08/12 05:10:46;;;;;;;6.10;2.60;;;;;;;;;;5033801;28;20013;-66
2022/08/12 05:13:14;;;;;;;5.95;2.42;;;;;;;;;;5034037;28;20025;-66
2022/08/12 05:15:40;;;;;;;9.38;2.80;;;;;;;;;;5033389;28;20108;-66
2022/08/12 05:18:05;;;;;;;6.10;2.53;;;;;;;;;;5033680;28;20053;-65
2022/08/12 05:20:30;;;;;;;5.97;2.75;;;;;;;;;;5033472;28;20029;-65
2022/08/12 05:23:08;;;;;;;6.68;2.60;;;;;;;;;;5033546;28;20079;-66
2022/08/12 05:25:33;;;;;;;5.07;2.35;;;;;;;;;;5033165;28;20102;-66
2022/08/12 05:27:59;;;;;;;5.00;2.63;;;;;;;;;;5033325;28;20036;-66
2022/08/12 05:30:29;;;;;;;11.65;2.80;;;;;;;;;;5033054;28;20067;-65
2022/08/12 05:32:55;;;;;;;6.82;2.83;;;;;;;;;;5033615;28;20413;-66
2022/08/12 05:35:21;;;;;;;5.47;2.55;;;;;;;;;;5032917;28;20021;-65
2022/08/12 05:37:46;;;;;;;8.43;2.42;;;;;;;;;;5033155;28;20091;-66
2022/08/12 05:40:11;;;;;;;5.47;2.10;;;;;;;;;;5033203;28;20025;-66
2022/08/12 05:42:37;;;;;;;6.38;2.72;;;;;;;;;;5033533;28;20036;-66
2022/08/12 05:45:02;;;;;;;6.68;2.63;;;;;;;;;;5033129;28;20474;-65
2022/08/12 05:47:27;;;;;;;6.82;2.63;;;;;;;;;;5033171;28;20087;-65
2022/08/12 05:49:53;;;;;;;6.20;2.20;;;;;;;;;;5032525;28;20034;-66
2022/08/12 05:52:18;;;;;;;6.53;2.50;;;;;;;;;;5032821;28;20116;-65
2022/08/12 05:54:44;;;;;;;6.63;2.42;;;;;;;;;;5032663;28;20095;-66
2022/08/12 05:57:11;;;;;;;5.90;2.40;;;;;;;;;;5033223;28;20429;-65
2022/08/12 05:59:37;;;;;;;8.82;2.78;;;;;;;;;;5032387;28;20025;-65
2022/08/12 06:02:08;;;;;;;10.32;2.53;;;;;;;;;;5032908;28;20113;-65
2022/08/12 06:04:33;;;;;;;5.82;2.40;;;;;;;;;;5032662;28;20041;-66
2022/08/12 06:07:00;;;;;;;5.32;2.45;;;;;;;;;;5032762;28;20104;-66
2022/08/12 06:09:27;;;;;;;7.55;2.50;;;;;;;;;;5032543;28;20025;-66
2022/08/12 06:11:53;;;;;;;5.60;2.33;;;;;;;;;;5032905;28;20025;-66
2022/08/12 06:14:18;;;;;;;6.80;2.47;;;;;;;;;;5032428;28;20482;-66
2022/08/12 06:16:45;;;;;;;15.00;2.90;;;;;;;;;;5032679;28;20034;-66
2022/08/12 06:19:10;;;;;;;4.40;2.45;;;;;;;;;;5031678;28;20533;-65
2022/08/12 06:21:36;;;;;;;4.55;2.47;;;;;;;;;;5032333;28;20105;-65
2022/08/12 06:24:02;;;;;;;6.60;2.67;;;;;;;;;;5032260;28;20549;-66
2022/08/12 06:26:27;;;;;;;6.07;2.67;;;;;;;;;;5032043;28;20017;-66
2022/08/12 06:28:53;;;;;;;5.15;2.40;;;;;;;;;;5031928;28;20032;-65
2022/08/12 06:31:18;;;;;;;6.03;2.75;;;;;;;;;;5032587;28;20021;-65
2022/08/12 06:33:45;;;;;;;6.03;2.47;;;;;;;;;;5032037;28;20014;-65
2022/08/12 06:36:12;;;;;;;6.35;2.72;;;;;;;;;;5032089;28;20447;-65
2022/08/12 06:38:38;;;;;;;6.50;2.90;;;;;;;;;;5032430;28;20025;-66
2022/08/12 06:43:52;;;;;;;6.97;2.42;;;;;;;;;;5031737;28;20040;-65
2022/08/12 06:46:18;;;;;;;7.25;3.00;;;;;;;;;;5032142;28;20025;-65
2022/08/12 06:48:43;;;;;;;8.23;3.13;;;;;;;;;;5031940;28;20028;-66
2022/08/12 06:51:10;;;;;;;6.32;2.90;;;;;;;;;;5031814;28;20029;-65
2022/08/12 06:53:35;;;;;;;8.00;2.83;;;;;;;;;;5032173;28;20507;-65
2022/08/12 06:56:00;;;;;;;4.78;2.50;;;;;;;;;;5031685;28;20017;-65
2022/08/12 06:58:26;;;;;;;7.13;2.70;;;;;;;;;;5031940;28;20044;-66
2022/08/12 07:00:54;;;;;;;6.15;2.85;;;;;;;;;;5031468;28;20461;-65
2022/08/12 07:03:24;;;;;;;7.65;2.45;;;;;;;;;;5031381;28;20065;-65
2022/08/12 07:05:50;;;;;;;8.15;2.70;;;;;;;;;;5031553;28;20095;-65
2022/08/12 07:08:15;;;;;;;7.45;2.88;;;;;;;;;;5031868;28;20025;-65
2022/08/12 07:10:52;;;;;;;10.98;2.70;;;;;;;;;;5031296;28;20551;-65
2022/08/12 07:13:17;;;;;;;8.82;2.42;;;;;;;;;;5031780;28;20033;-65
2022/08/12 07:15:44;;;;;;;11.57;2.97;;;;;;;;;;5031479;28;20152;-65
2022/08/12 07:18:16;;;;;;;11.25;2.80;;;;;;;;;;5031454;28;20025;-66
2022/08/12 07:20:42;;;;;;;7.78;2.70;;;;;;;;;;5031052;28;20018;-66
2022/08/12 07:23:08;;;;;;;8.18;2.80;;;;;;;;;;5031659;28;20104;-66
2022/08/12 07:25:38;;;;;;;5.97;2.53;;;;;;;;;;5031007;28;20129;-65
2022/08/12 07:28:08;;;;;;;7.15;2.50;;;;;;;;;;5031372;28;20037;-65
2022/08/12 07:30:36;;;;;;;9.85;2.70;;;;;;;;;;5031250;28;20029;-65
2022/08/12 07:33:03;;;;;;;8.60;2.60;;;;;;;;;;5031621;28;20075;-65
2022/08/12 07:35:28;;;;;;;7.38;2.40;;;;;;;;;;5031144;28;20097;-65
2022/08/12 07:37:55;;;;;;;7.03;2.85;;;;;;;;;;5031517;28;20489;-65
2022/08/12 07:40:20;;;;;;;8.27;2.42;;;;;;;;;;5030872;28;20021;-66
2022/08/12 07:42:46;;;;;;;8.05;2.38;;;;;;;;;;5031216;28;20520;-66
2022/08/12 07:45:12;;;;;;;7.35;2.30;;;;;;;;;;5031048;28;20025;-66
2022/08/12 07:47:40;;;;;;;6.03;2.30;;;;;;;;;;5030814;28;20028;-66
2022/08/12 07:50:08;;;;;;;13.55;3.15;;;;;;;;;;5030998;28;20489;-66
2022/08/12 07:52:37;;;;;;;8.70;2.72;;;;;;;;;;5031010;28;20536;-66
2022/08/12 07:55:02;;;;;;;5.35;2.10;;;;;;;;;;5030763;28;20083;-66
2022/08/12 07:57:27;;;;;;;7.28;2.40;;;;;;;;;;5030957;28;20026;-65
2022/08/12 07:59:53;;;;;;;8.88;2.10;;;;;;;;;;5030893;28;20030;-65
2022/08/12 08:02:18;;;;;;;6.47;1.98;;;;;;;;;;5031134;28;20021;-66
2022/08/12 08:04:55;;;;;;;4.18;2.22;;;;;;;;;;5030945;28;20034;-66
2022/08/12 08:07:21;;;;;;;7.70;2.10;;;;;;;;;;5030933;28;20014;-66
2022/08/12 08:09:46;;;;;;;5.18;2.28;;;;;;;;;;5029433;28;20462;-67
2022/08/12 08:14:57;;;;;;;6.97;2.15;;;;;;;;;;5030513;28;20029;-65
2022/08/12 08:17:22;;;;;;;12.52;2.40;;;;;;;;;;5031105;28;20474;-66
2022/08/12 08:19:53;;;;;;;10.10;2.10;;;;;;;;;;5030589;28;20036;-65
2022/08/12 08:22:19;;;;;;;10.63;2.00;;;;;;;;;;5031093;28;20029;-65
2022/08/12 08:24:44;;;;;;;5.75;1.98;;;;;;;;;;5030816;28;20030;-66
2022/08/12 08:27:09;;;;;;;5.88;2.15;;;;;;;;;;5030854;28;20454;-66
2022/08/12 08:29:35;;;;;;;6.38;2.10;;;;;;;;;;5030111;28;20025;-65
2022/08/12 08:32:00;;;;;;;5.07;1.83;;;;;;;;;;5031127;28;20014;-66
2022/08/12 08:34:28;;;;;;;8.35;1.95;;;;;;;;;;5030688;28;20268;-65
2022/08/12 08:36:54;;;;;;;12.02;2.45;;;;;;;;;;5031049;28;20481;-65
2022/08/12 08:39:26;;;;;;;8.75;2.08;;;;;;;;;;5030662;28;20022;-66
2022/08/12 08:44:38;;;;;;;12.55;2.30;;;;;;;;;;5034223;28;20086;-65
2022/08/12 08:47:07;;;;;;;10.02;2.17;;;;;;;;;;5033874;28;20116;-65
2022/08/12 08:49:35;;;;;;;9.88;1.95;;;;;;;;;;5032269;28;20099;-66
2022/08/12 08:52:01;;;;;;;9.15;1.85;;;;;;;;;;5033915;28;20037;-65
2022/08/12 08:54:27;;;;;;;4.03;1.70;;;;;;;;;;5034139;28;20159;-66
2022/08/12 08:56:53;;;;;;;3.97;1.70;;;;;;;;;;5034288;28;20533;-65
2022/08/12 08:59:18;;;;;;;11.45;1.90;;;;;;;;;;5033591;28;20152;-66
2022/08/12 09:01:44;;;;;;;5.90;1.77;;;;;;;;;;5033992;28;20029;-66
2022/08/12 09:04:12;;;;;;;8.52;1.70;;;;;;;;;;5033452;28;20164;-65
2022/08/12 09:06:41;;;;;;;8.70;1.67;;;;;;;;;;5033340;28;20071;-66
2022/08/12 09:09:07;;;;;;;7.80;1.75;;;;;;;;;;5033855;28;20021;-65
2022/08/12 09:14:16;;;;;;;8.43;1.80;;;;;;;;;;5033640;28;20144;-66
2022/08/12 09:16:41;;;;;;;8.68;1.67;;;;;;;;;;5033696;28;20029;-66
2022/08/12 09:19:09;;;;;;;8.43;1.65;;;;;;;;;;5033235;28;20047;-65
2022/08/12 09:21:34;;;;;;;8.15;1.70;;;;;;;;;;5033730;28;20444;-65
2022/08/12 09:24:00;;;;;;;11.60;1.90;;;;;;;;;;5033226;28;20087;-66
2022/08/12 09:26:27;;;;;;;7.20;1.83;;;;;;;;;;5033344;28;20393;-66
2022/08/12 09:28:52;;;;;;;6.45;1.85;;;;;;;;;;5033293;28;20458;-66
2022/08/12 09:31:18;;;;;;;9.40;1.70;;;;;;;;;;5033624;28;20018;-66
2022/08/12 09:33:43;;;;;;;3.80;1.63;;;;;;;;;;5033333;28;20026;-65
2022/08/12 09:36:08;;;;;;;5.00;1.55;;;;;;;;;;5032942;28;20048;-66
2022/08/12 09:38:33;;;;;;;9.07;1.50;;;;;;;;;;5033169;28;20112;-66
2022/08/12 09:40:59;;;;;;;4.40;1.50;;;;;;;;;;5032804;28;20287;-65
2022/08/12 09:46:16;;;;;;;7.68;1.60;;;;;;;;;;5033053;28;20121;-66
2022/08/12 09:48:41;;;;;;;5.25;1.63;;;;;;;;;;5032946;28;20021;-66
2022/08/12 09:51:07;;;;;;;8.65;1.67;;;;;;;;;;5033080;28;20040;-66
2022/08/12 09:53:33;;;;;;;9.13;1.60;;;;;;;;;;5033120;28;20504;-66
2022/08/12 09:55:58;;;;;;;5.43;1.40;;;;;;;;;;5032111;28;20165;-66
2022/08/12 09:58:28;;;;;;;7.60;1.67;;;;;;;;;;5032855;28;20017;-66
2022/08/12 10:01:00;;;;;;;5.10;1.73;;;;;;;;;;5032787;28;20240;-66
2022/08/12 10:03:27;;;;;;;8.63;1.70;;;;;;;;;;5032912;28;20327;-66
2022/08/12 10:05:53;;;;;;;4.50;1.40;;;;;;;;;;5033049;28;20350;-66
2022/08/12 10:08:18;;;;;;;14.20;1.60;;;;;;;;;;5032816;28;20029;-66
2022/08/12 10:13:41;;;;;;;6.53;1.63;;;;;;;;;;5032769;28;20086;-66
2022/08/12 10:16:13;;;;;;;6.93;1.60;;;;;;;;;;5032658;28;20017;-65
2022/08/12 10:18:41;;;;;;;5.88;1.35;;;;;;;;;;5032638;28;20081;-65
2022/08/12 10:21:07;;;;;;;5.68;1.40;;;;;;;;;;5032143;28;20075;-66
2022/08/12 10:23:32;;;;;;;7.55;1.50;;;;;;;;;;5032737;28;20021;-66
2022/08/12 10:31:25;;;;;;;6.90;1.50;;;;;;;;;;5032325;28;20055;-67
2022/08/12 10:33:50;;;;;;;6.30;1.20;;;;;;;;;;5031884;28;20478;-67
2022/08/12 10:36:16;;;;;;;4.18;1.30;;;;;;;;;;5012578;28;20030;-66
2022/08/12 10:38:41;;;;;;;3.30;1.40;;;;;;;;;;5012755;28;20096;-66
2022/08/12 10:43:50;;;;;;;5.28;1.30;;;;;;;;;;5032234;28;20306;-66
2022/08/12 10:46:18;;;;;;;8.02;1.30;;;;;;;;;;5031863;28;20033;-66
2022/08/12 10:48:46;;;;;;;6.15;1.58;;;;;;;;;;5031958;28;20013;-66
2022/08/12 10:51:11;;;;;;;6.78;1.25;;;;;;;;;;5031699;28;20506;-66
2022/08/12 10:53:36;;;;;;;3.97;1.23;;;;;;;;;;5031867;28;20025;-67
2022/08/12 10:56:02;;;;;;;5.57;1.20;;;;;;;;;;5031604;28;20029;-66
2022/08/12 10:58:27;;;;;;;2.78;1.15;;;;;;;;;;5030881;28;20279;-66
2022/08/12 11:00:52;;;;;;;8.27;1.40;;;;;;;;;;5031719;28;20041;-66
2022/08/12 11:03:20;;;;;;;2.65;1.20;;;;;;;;;;5031664;28;20489;-66
2022/08/12 11:05:46;;;;;;;7.40;1.20;;;;;;;;;;5031371;28;20027;-66
2022/08/12 11:08:12;;;;;;;4.20;1.20;;;;;;;;;;5031554;28;20030;-66
2022/08/12 11:10:37;;;;;;;4.05;1.30;;;;;;;;;;5031204;28;20026;-67
2022/08/12 11:13:02;;;;;;;3.90;1.40;;;;;;;;;;5031556;28;20025;-66
2022/08/12 11:15:28;;;;;;;4.57;1.20;;;;;;;;;;5031312;28;20253;-66
2022/08/12 11:17:53;;;;;;;2.85;1.00;;;;;;;;;;5031414;28;20120;-66
2022/08/12 11:20:18;;;;;;;5.67;1.20;;;;;;;;;;5031481;28;20112;-65
2022/08/12 11:22:53;;;;;;;7.70;1.30;;;;;;;;;;5031941;28;20661;-66
2022/08/12 11:25:18;;;;;;;4.22;1.10;;;;;;;;;;5030992;28;20252;-65
2022/08/12 11:27:44;;;;;;;4.33;1.00;;;;;;;;;;5031574;28;20048;-65
2022/08/12 11:30:09;;;;;;;2.43;1.10;;;;;;;;;;5031406;28;20256;-66
2022/08/12 11:32:34;;;;;;;3.38;1.23;;;;;;;;;;5031166;28;20608;-66
2022/08/12 11:35:00;;;;;;;5.68;1.30;;;;;;;;;;5031273;28;20080;-66
2022/08/12 11:37:25;;;;;;;4.97;1.33;;;;;;;;;;5031522;28;20394;-66
2022/08/12 11:39:50;;;;;;;2.30;1.00;;;;;;;;;;5031060;28;20036;-65
2022/08/12 11:42:16;;;;;;;3.40;1.27;;;;;;;;;;5031231;28;20021;-66
2022/08/12 11:44:41;;;;;;;7.25;1.25;;;;;;;;;;5031169;28;20588;-66
2022/08/12 11:47:06;;;;;;;5.40;1.30;;;;;;;;;;5031036;28;20385;-65
2022/08/12 11:49:31;;;;;;;3.10;1.00;;;;;;;;;;5030968;28;20624;-69
2022/08/12 11:51:57;;;;;;;3.15;1.13;;;;;;;;;;5031130;28;20030;-66
2022/08/12 11:54:22;;;;;;;8.30;1.37;;;;;;;;;;5031094;28;20119;-66
2022/08/12 11:56:47;;;;;;;3.88;1.20;;;;;;;;;;5031395;28;20342;-66
2022/08/12 11:59:12;;;;;;;3.63;1.20;;;;;;;;;;5030714;28;20021;-66
2022/08/12 12:01:37;;;;;;;6.93;1.10;;;;;;;;;;5031155;28;20287;-66
2022/08/12 12:04:03;;;;;;;2.83;1.10;;;;;;;;;;5030913;28;20261;-66
2022/08/12 12:06:28;;;;;;;5.32;1.13;;;;;;;;;;5031281;28;20284;-66
2022/08/12 12:08:53;;;;;;;7.07;1.30;;;;;;;;;;5031056;28;20014;-66
2022/08/12 12:11:19;;;;;;;4.05;1.30;;;;;;;;;;5031225;28;20259;-66
2022/08/12 12:13:45;;;;;;;3.20;1.17;;;;;;;;;;5031070;28;20018;-66
2022/08/12 12:16:10;;;;;;;8.23;1.70;;;;;;;;;;5030730;28;20060;-66
2022/08/12 12:18:35;;;;;;;3.80;1.20;;;;;;;;;;5033276;28;20021;-65
2022/08/12 12:21:01;;;;;;;8.57;1.30;;;;;;;;;;5034540;28;20371;-65
2022/08/12 12:23:28;;;;;;;3.90;1.15;;;;;;;;;;5034692;28;20104;-65
2022/08/12 12:25:53;;;;;;;3.17;1.35;;;;;;;;;;5034330;28;20040;-66
2022/08/12 12:28:19;;;;;;;4.28;1.23;;;;;;;;;;5034162;28;20026;-66
2022/08/12 12:30:44;;;;;;;3.20;1.20;;;;;;;;;;5034234;28;20367;-66
2022/08/12 12:33:10;;;;;;;4.95;1.20;;;;;;;;;;5035186;28;20092;-66
2022/08/12 12:35:35;;;;;;;4.82;1.05;;;;;;;;;;5034082;28;20025;-66
2022/08/12 12:38:05;;;;;;;2.83;1.10;;;;;;;;;;5034345;28;20025;-69
2022/08/12 12:40:31;;;;;;;5.53;1.30;;;;;;;;;;5034396;28;20553;-66
2022/08/12 12:42:58;;;;;;;7.90;1.20;;;;;;;;;;5033811;28;20030;-66
2022/08/12 12:45:23;;;;;;;3.50;1.05;;;;;;;;;;5034357;28;20079;-65
2022/08/12 12:47:51;;;;;;;4.78;1.20;;;;;;;;;;5034618;28;20466;-65
2022/08/12 12:50:17;;;;;;;5.78;1.15;;;;;;;;;;5033798;28;20024;-65
2022/08/12 12:52:43;;;;;;;3.75;1.20;;;;;;;;;;5033697;28;20128;-66
2022/08/12 12:55:09;;;;;;;3.20;1.20;;;;;;;;;;5033573;28;20029;-66
2022/08/12 12:57:38;;;;;;;3.63;1.20;;;;;;;;;;5034094;28;20489;-66
2022/08/12 13:00:16;;;;;;;8.50;2.05;;;;;;;;;;5034020;28;20494;-66
2022/08/12 13:02:49;;;;;;;4.55;1.10;;;;;;;;;;5033348;28;20042;-66
2022/08/12 13:05:15;;;;;;;4.07;1.25;;;;;;;;;;5033517;28;20040;-66
2022/08/12 13:07:41;;;;;;;3.28;1.20;;;;;;;;;;5034089;28;20013;-66
2022/08/12 13:10:06;;;;;;;3.42;0.98;;;;;;;;;;5033630;28;20025;-65
2022/08/12 13:12:33;;;;;;;4.70;1.27;;;;;;;;;;5032234;28;20029;-65
2022/08/12 13:14:58;;;;;;;4.30;1.15;;;;;;;;;;5033538;28;20128;-66
2022/08/12 13:17:23;;;;;;;4.55;1.05;;;;;;;;;;5034007;28;20022;-66
2022/08/12 13:19:48;;;;;;;2.20;1.10;;;;;;;;;;5033752;28;20036;-66
2022/08/12 13:22:19;;;;;;;3.00;1.23;;;;;;;;;;5033478;28;20305;-66
2022/08/12 13:24:45;;;;;;;4.88;1.25;;;;;;;;;;5033655;28;20331;-66
2022/08/12 13:27:10;;;;;;;6.05;1.23;;;;;;;;;;5033677;28;20506;-66
2022/08/12 13:29:37;;;;;;;5.32;1.20;;;;;;;;;;5033256;28;20025;-66
2022/08/12 13:32:04;;;;;;;2.67;1.23;;;;;;;;;;5033528;28;20014;-64
2022/08/12 13:34:29;;;;;;;4.50;1.40;;;;;;;;;;5033450;28;20536;-64
2022/08/12 13:36:55;;;;;;;4.53;1.40;;;;;;;;;;5033646;28;20025;-63
2022/08/12 13:39:21;;;;;;;4.35;1.38;;;;;;;;;;5032984;28;20744;-65
2022/08/12 13:41:46;;;;;;;2.53;1.10;;;;;;;;;;5034076;28;20024;-67
2022/08/12 13:44:12;;;;;;;3.03;1.20;;;;;;;;;;5033340;28;20067;-66
2022/08/12 13:46:39;;;;;;;4.90;1.40;;;;;;;;;;5033261;28;20029;-66
2022/08/12 13:49:06;;;;;;;5.50;1.20;;;;;;;;;;5033123;28;20017;-66
2022/08/12 13:51:31;;;;;;;3.53;1.20;;;;;;;;;;5033302;28;20061;-66
2022/08/12 13:53:57;;;;;;;5.47;1.48;;;;;;;;;;5032849;28;20461;-66
2022/08/12 13:56:25;;;;;;;2.30;1.07;;;;;;;;;;5032867;28;20029;-66
2022/08/12 13:58:51;;;;;;;6.95;1.63;;;;;;;;;;5033141;28;20260;-64
2022/08/12 14:01:19;;;;;;;4.40;1.30;;;;;;;;;;5033048;28;20477;-64
2022/08/12 14:03:44;;;;;;;2.95;1.20;;;;;;;;;;5033063;28;20029;-64
2022/08/12 14:06:11;;;;;;;3.05;1.10;;;;;;;;;;5032548;28;20474;-63
2022/08/12 14:08:37;;;;;;;4.70;1.55;;;;;;;;;;5032590;28;20039;-64
2022/08/12 14:11:02;;;;;;;6.30;1.77;;;;;;;;;;5032640;28;20022;-63
2022/08/12 14:13:28;;;;;;;14.20;3.28;;;;;;;;;;5032693;28;20014;-63
2022/08/12 14:15:56;;;;;;;12.30;2.50;;;;;;;;;;5032283;28;20036;-64
2022/08/12 14:18:21;;;;;;;8.38;1.60;;;;;;;;;;5032851;28;20028;-64
2022/08/12 14:20:47;;;;;;;10.40;1.88;;;;;;;;;;5032145;28;20448;-67
2022/08/12 14:23:13;;;;;;;8.52;1.40;;;;;;;;;;5031908;28;20025;-66
2022/08/12 14:25:38;;;;;;;6.72;1.60;;;;;;;;;;5032474;28;20025;-66
2022/08/12 14:28:10;;;;;;;29.00;3.47;;;;;;;;;;5032759;28;20041;-66
2022/08/12 14:30:35;;;;;;;99.60;10.23;;;;;;;;;;5032432;28;20025;-66
2022/08/12 14:33:02;;;;;;;659.22;51.95;;;;;;;;;;5032712;28;20032;-66
2022/08/12 14:35:27;;;;;;;6.00;1.67;;;;;;;;;;5032390;28;20029;-66
2022/08/12 14:37:52;;;;;;;5.80;1.30;;;;;;;;;;5032232;28;20079;-66
2022/08/12 14:40:17;;;;;;;3.47;1.23;;;;;;;;;;5031316;28;20668;-66
2022/08/12 14:42:43;;;;;;;6.22;1.48;;;;;;;;;;5032182;28;20052;-65
2022/08/12 14:45:08;;;;;;;7.30;1.30;;;;;;;;;;5031781;28;20032;-66
2022/08/12 14:47:33;;;;;;;6.28;1.30;;;;;;;;;;5031875;28;20474;-66
2022/08/12 14:49:58;;;;;;;7.37;1.60;;;;;;;;;;5032025;28;20030;-63
2022/08/12 14:52:24;;;;;;;2.90;1.30;;;;;;;;;;5031986;28;20287;-63
2022/08/12 14:54:49;;;;;;;3.72;1.30;;;;;;;;;;5031216;28;20760;-63
2022/08/12 14:57:15;;;;;;;4.00;1.60;;;;;;;;;;5032054;28;20158;-64
2022/08/12 15:02:27;;;;;;;6.90;1.50;;;;;;;;;;5031417;28;20171;-64
2022/08/12 15:04:57;;;;;;;3.95;1.60;;;;;;;;;;5029218;28;20025;-64
2022/08/12 15:07:24;;;;;;;5.35;1.42;;;;;;;;;;5018647;28;20508;-64
2022/08/12 15:09:49;;;;;;;4.25;1.83;;;;;;;;;;5034214;28;20166;-63
2022/08/12 15:12:15;;;;;;;3.60;1.43;;;;;;;;;;5027949;28;20108;-63
2022/08/12 15:14:41;;;;;;;2.95;1.40;;;;;;;;;;5026653;28;20280;-63
2022/08/12 15:17:07;;;;;;;3.47;1.30;;;;;;;;;;5026810;28;20112;-63
2022/08/12 15:19:32;;;;;;;3.00;1.35;;;;;;;;;;5025651;28;20162;-63
2022/08/12 15:21:57;;;;;;;4.57;1.40;;;;;;;;;;5026996;28;20481;-63
2022/08/12 15:24:23;;;;;;;5.22;1.42;;;;;;;;;;5024328;28;20091;-63
2022/08/12 15:26:48;;;;;;;3.38;1.40;;;;;;;;;;5027860;28;20025;-63
2022/08/12 15:29:13;;;;;;;4.05;1.40;;;;;;;;;;5029231;28;20021;-63
2022/08/12 15:31:38;;;;;;;5.65;1.58;;;;;;;;;;5027948;28;20025;-65
2022/08/12 15:34:05;;;;;;;5.50;1.40;;;;;;;;;;5025654;28;20112;-63
2022/08/12 15:36:30;;;;;;;4.43;1.50;;;;;;;;;;5028291;28;20056;-64
2022/08/12 15:38:56;;;;;;;5.72;1.40;;;;;;;;;;5027831;28;20540;-68
2022/08/12 15:41:23;;;;;;;6.68;1.60;;;;;;;;;;5028663;28;20060;-66
2022/08/12 15:43:49;;;;;;;5.38;1.30;;;;;;;;;;5027479;28;20036;-66
2022/08/12 15:46:14;;;;;;;4.45;1.30;;;;;;;;;;5024454;28;20037;-66
2022/08/12 15:48:42;;;;;;;3.90;1.60;;;;;;;;;;5027913;28;20473;-66
2022/08/12 15:51:08;;;;;;;3.92;1.20;;;;;;;;;;5027164;28;20562;-66
2022/08/12 15:56:17;;;;;;;4.28;1.30;;;;;;;;;;5033378;28;20035;-64
2022/08/12 15:58:42;;;;;;;2.78;1.27;;;;;;;;;;5032634;28;20025;-66
2022/08/12 16:01:09;;;;;;;3.38;1.42;;;;;;;;;;5030422;28;20024;-67
2022/08/12 16:03:35;;;;;;;5.03;1.40;;;;;;;;;;5028064;28;20036;-64
2022/08/12 16:06:00;;;;;;;4.13;1.25;;;;;;;;;;5031047;28;20033;-64
2022/08/12 16:08:25;;;;;;;2.75;1.20;;;;;;;;;;5032303;28;20053;-64
2022/08/12 16:10:51;;;;;;;7.10;1.30;;;;;;;;;;5032306;28;20382;-64
2022/08/12 16:13:18;;;;;;;5.25;1.52;;;;;;;;;;5031422;28;20481;-64
2022/08/12 16:15:44;;;;;;;3.95;1.27;;;;;;;;;;5031525;28;20025;-64
2022/08/12 16:18:09;;;;;;;6.07;1.38;;;;;;;;;;5032931;28;20055;-64
2022/08/12 16:20:35;;;;;;;5.28;1.50;;;;;;;;;;5027577;28;20087;-64
2022/08/12 16:23:00;;;;;;;5.35;1.33;;;;;;;;;;5026602;28;20114;-64
2022/08/12 16:25:26;;;;;;;2.53;1.30;;;;;;;;;;5034375;28;20029;-64
2022/08/12 16:27:52;;;;;;;5.53;1.50;;;;;;;;;;5029634;28;20038;-64
2022/08/12 16:30:18;;;;;;;6.38;1.67;;;;;;;;;;5030893;28;20461;-64
2022/08/12 16:32:44;;;;;;;5.43;1.40;;;;;;;;;;5031533;28;20028;-64
2022/08/12 16:35:09;;;;;;;10.45;1.60;;;;;;;;;;5030657;28;20030;-64
2022/08/12 16:37:35;;;;;;;7.50;1.50;;;;;;;;;;5030127;28;20068;-64